Time;durP1;ratioP1;P1;durP2;ratioP2;P2;SDS_P1;SDS_P2;PMS_P1;PMS_P2;Temp;Humidity;BMP_temperature;BMP_pressure;BME280_temperature;BME280_humidity;BME280_pressure;Samples;Min_cycle;Max_cycle;Signal;HPM_P1;HPM_P2
2022/03/24 00:00:08;;;;;;;1.53;1.17;;;7.50;99.90;;;;;;5052520;28;20404;-70
2022/03/24 00:02:34;;;;;;;1.93;1.83;;;7.40;99.90;;;;;;5052496;28;20406;-70
2022/03/24 00:05:00;;;;;;;1.83;1.70;;;7.40;99.90;;;;;;5052036;28;20425;-70
2022/03/24 00:07:26;;;;;;;0.90;0.90;;;7.30;99.90;;;;;;5052359;28;20409;-69
2022/03/24 00:09:52;;;;;;;1.10;0.80;;;7.30;99.90;;;;;;5052345;28;20416;-69
2022/03/24 00:12:18;;;;;;;1.37;1.27;;;7.30;99.90;;;;;;5052393;28;20189;-69
2022/03/24 00:14:43;;;;;;;1.20;1.10;;;7.30;99.90;;;;;;5051887;28;20198;-69
2022/03/24 00:17:09;;;;;;;1.60;1.27;;;7.20;99.90;;;;;;5052235;28;20436;-70
2022/03/24 00:19:35;;;;;;;2.63;1.07;;;7.20;99.90;;;;;;5052244;28;20519;-69
2022/03/24 00:22:01;;;;;;;1.00;0.90;;;7.20;99.90;;;;;;5052160;28;20405;-70
2022/03/24 00:24:26;;;;;;;1.30;1.20;;;7.10;99.90;;;;;;5051698;28;20435;-69
2022/03/24 00:26:52;;;;;;;1.90;1.63;;;7.10;99.90;;;;;;5052124;28;20225;-70
2022/03/24 00:29:18;;;;;;;0.80;0.80;;;7.10;99.90;;;;;;5052034;28;20174;-70
2022/03/24 00:31:44;;;;;;;2.80;1.43;;;7.00;99.90;;;;;;5052030;28;20253;-70
2022/03/24 00:34:10;;;;;;;1.80;1.40;;;7.00;99.90;;;;;;5051608;28;20887;-69
2022/03/24 00:36:36;;;;;;;1.30;1.20;;;7.00;99.90;;;;;;5051936;28;20162;-69
2022/03/24 00:39:03;;;;;;;1.10;1.00;;;7.00;99.90;;;;;;5052003;28;20409;-70
2022/03/24 00:41:28;;;;;;;1.27;1.17;;;6.90;99.90;;;;;;5051991;28;20171;-69
2022/03/24 00:43:55;;;;;;;5.30;1.43;;;6.90;99.90;;;;;;5051602;28;20762;-69
2022/03/24 00:46:22;;;;;;;1.30;1.00;;;6.90;99.90;;;;;;5051923;28;20698;-69
2022/03/24 00:48:49;;;;;;;1.50;1.10;;;6.80;99.90;;;;;;5051922;28;20406;-70
2022/03/24 00:51:15;;;;;;;7.50;2.40;;;6.80;99.90;;;;;;5051760;28;20408;-70
2022/03/24 00:53:41;;;;;;;1.73;1.47;;;6.80;99.90;;;;;;5051105;28;20409;-69
2022/03/24 00:56:07;;;;;;;1.20;0.80;;;6.80;99.90;;;;;;5050501;28;20233;-69
2022/03/24 00:58:33;;;;;;;1.40;1.20;;;6.80;99.90;;;;;;5051771;28;20790;-69
2022/03/24 01:00:58;;;;;;;1.33;1.23;;;6.70;99.90;;;;;;5051769;28;20213;-70
2022/03/24 01:03:24;;;;;;;0.80;0.60;;;6.70;99.90;;;;;;5054938;28;20629;-72
2022/03/24 01:05:49;;;;;;;1.77;1.20;;;6.70;99.90;;;;;;5055671;28;20248;-69
2022/03/24 01:08:17;;;;;;;0.70;0.50;;;6.70;99.90;;;;;;5055714;28;20219;-70
2022/03/24 01:10:43;;;;;;;4.30;1.77;;;6.60;99.90;;;;;;5055719;28;20624;-70
2022/03/24 01:13:09;;;;;;;2.50;1.53;;;6.60;99.90;;;;;;5055290;28;20409;-70
2022/03/24 01:15:35;;;;;;;0.87;0.57;;;6.60;99.90;;;;;;5055470;28;20456;-69
2022/03/24 01:18:01;;;;;;;0.90;0.83;;;6.50;99.90;;;;;;5055625;28;20420;-69
2022/03/24 01:20:28;;;;;;;1.97;1.63;;;6.50;99.90;;;;;;5055533;28;20778;-69
2022/03/24 01:22:54;;;;;;;0.80;0.70;;;6.50;99.90;;;;;;5055364;28;20409;-69
2022/03/24 01:25:20;;;;;;;1.10;1.00;;;6.40;99.90;;;;;;5055243;28;20486;-69
2022/03/24 01:27:46;;;;;;;2.90;1.43;;;6.40;99.90;;;;;;5055387;28;20773;-68
2022/03/24 01:30:12;;;;;;;1.40;1.30;;;6.40;99.90;;;;;;5055356;28;20177;-69
2022/03/24 01:32:38;;;;;;;1.63;1.53;;;6.40;99.90;;;;;;5055309;28;20454;-70
2022/03/24 01:35:07;;;;;;;0.70;0.53;;;6.30;99.90;;;;;;5054793;28;20539;-69
2022/03/24 01:37:34;;;;;;;1.97;1.67;;;6.30;99.90;;;;;;5055250;28;20170;-70
2022/03/24 01:40:00;;;;;;;0.80;0.50;;;6.30;99.90;;;;;;5055186;28;20423;-70
2022/03/24 01:42:26;;;;;;;1.57;1.47;;;6.30;99.90;;;;;;5055126;28;20907;-71
2022/03/24 01:44:55;;;;;;;4.70;1.03;;;6.30;99.90;;;;;;5054870;28;20187;-69
2022/03/24 01:47:22;;;;;;;1.43;1.33;;;6.20;99.90;;;;;;5054982;28;20410;-69
2022/03/24 01:49:48;;;;;;;1.57;1.47;;;6.20;99.90;;;;;;5054830;28;20484;-70
2022/03/24 01:52:17;;;;;;;1.00;0.90;;;6.20;99.90;;;;;;5054686;28;20409;-70
2022/03/24 01:54:49;;;;;;;0.70;0.50;;;6.10;99.90;;;;;;5053792;28;20468;-70
2022/03/24 01:57:16;;;;;;;0.80;0.80;;;6.10;99.90;;;;;;5053630;28;20429;-70
2022/03/24 01:59:42;;;;;;;0.70;0.60;;;6.10;99.90;;;;;;5053553;28;20412;-70
2022/03/24 02:02:09;;;;;;;2.10;1.93;;;6.00;99.90;;;;;;5052241;28;20508;-70
2022/03/24 02:04:35;;;;;;;4.40;0.90;;;6.00;99.90;;;;;;5053127;28;20437;-69
2022/03/24 02:07:05;;;;;;;1.53;1.43;;;6.00;99.90;;;;;;5053415;28;20444;-69
2022/03/24 02:09:38;;;;;;;2.10;2.00;;;5.90;99.90;;;;;;5053457;28;20437;-69
2022/03/24 02:12:05;;;;;;;0.80;0.57;;;5.90;99.90;;;;;;5053516;28;20903;-70
2022/03/24 02:14:30;;;;;;;0.77;0.57;;;5.90;99.90;;;;;;5052464;28;21139;-73
2022/03/24 02:16:56;;;;;;;0.80;0.60;;;5.90;99.90;;;;;;5051940;28;20410;-70
2022/03/24 02:19:24;;;;;;;0.97;0.90;;;5.80;99.90;;;;;;5053249;28;20178;-69
2022/03/24 02:21:56;;;;;;;3.67;3.37;;;5.80;99.90;;;;;;5053215;28;20580;-70
2022/03/24 02:24:26;;;;;;;19.93;2.40;;;5.70;99.90;;;;;;5052857;28;20417;-69
2022/03/24 02:26:52;;;;;;;0.80;0.70;;;5.70;99.90;;;;;;5053247;28;20410;-69
2022/03/24 02:29:19;;;;;;;0.93;0.83;;;5.70;99.90;;;;;;5053154;28;20414;-70
2022/03/24 02:31:47;;;;;;;1.73;1.37;;;5.60;99.90;;;;;;5051884;28;20417;-70
2022/03/24 02:37:00;;;;;;;0.80;0.63;;;5.50;99.90;;;;;;5053251;28;20772;-70
2022/03/24 02:39:28;;;;;;;0.70;0.50;;;5.50;99.90;;;;;;5052934;28;20405;-70
2022/03/24 02:41:55;;;;;;;0.80;0.50;;;5.40;99.90;;;;;;5052879;28;20401;-69
2022/03/24 02:44:22;;;;;;;0.80;0.60;;;5.40;99.90;;;;;;5052580;28;20425;-70
2022/03/24 02:46:50;;;;;;;1.43;1.13;;;5.30;99.90;;;;;;5052882;28;20969;-70
2022/03/24 02:49:17;;;;;;;0.77;0.50;;;5.30;99.90;;;;;;5052815;28;20416;-69
2022/03/24 02:51:42;;;;;;;3.47;1.53;;;5.30;99.90;;;;;;5052770;28;20914;-70
2022/03/24 02:54:09;;;;;;;1.10;1.00;;;5.30;99.90;;;;;;5015249;28;1063153;-69
2022/03/24 02:56:35;;;;;;;0.80;0.70;;;5.20;99.90;;;;;;5053827;28;20170;-70
2022/03/24 02:59:01;;;;;;;4.00;2.97;;;5.20;99.90;;;;;;5053729;28;20418;-70
2022/03/24 03:01:28;;;;;;;1.13;1.03;;;5.20;99.90;;;;;;5053522;28;20413;-69
2022/03/24 03:03:54;;;;;;;0.80;0.70;;;5.20;99.90;;;;;;5053163;28;20555;-70
2022/03/24 03:06:20;;;;;;;0.87;0.80;;;5.10;99.90;;;;;;5053446;28;20817;-70
2022/03/24 03:08:48;;;;;;;1.10;0.93;;;5.10;99.90;;;;;;5053460;28;20420;-70
2022/03/24 03:11:13;;;;;;;0.80;0.70;;;5.10;99.90;;;;;;5053490;28;20408;-70
2022/03/24 03:13:39;;;;;;;2.80;1.90;;;5.10;99.90;;;;;;5052852;28;20401;-70
2022/03/24 03:16:05;;;;;;;0.77;0.50;;;5.00;99.90;;;;;;5053330;28;20171;-70
2022/03/24 03:18:32;;;;;;;0.80;0.57;;;5.00;99.90;;;;;;5051963;28;20258;-70
2022/03/24 03:20:59;;;;;;;1.50;1.40;;;4.90;99.90;;;;;;5053349;28;20419;-70
2022/03/24 03:23:25;;;;;;;4.00;3.77;;;4.90;99.90;;;;;;5053017;28;20412;-70
2022/03/24 03:25:50;;;;;;;3.27;3.17;;;4.90;99.90;;;;;;5052313;28;20433;-70
2022/03/24 03:28:16;;;;;;;1.57;1.47;;;4.90;99.90;;;;;;5053093;28;20459;-70
2022/03/24 03:30:43;;;;;;;1.27;0.90;;;4.80;99.90;;;;;;5053126;28;20232;-70
2022/03/24 03:33:09;;;;;;;1.20;0.70;;;4.80;99.90;;;;;;5052858;28;20174;-71
2022/03/24 03:35:35;;;;;;;1.90;1.23;;;4.80;99.90;;;;;;5052725;28;20550;-70
2022/03/24 03:38:00;;;;;;;2.80;1.90;;;4.80;99.90;;;;;;5052965;28;20775;-70
2022/03/24 03:40:26;;;;;;;3.53;3.23;;;4.80;99.90;;;;;;5052915;28;20159;-70
2022/03/24 03:42:52;;;;;;;1.03;0.97;;;4.70;99.90;;;;;;5051615;28;20227;-70
2022/03/24 03:45:18;;;;;;;0.70;0.50;;;4.70;99.90;;;;;;5052349;28;20272;-70
2022/03/24 03:47:44;;;;;;;0.80;0.70;;;4.70;99.90;;;;;;5052691;28;20463;-70
2022/03/24 03:50:09;;;;;;;1.90;1.80;;;4.70;99.90;;;;;;5052749;28;20175;-70
2022/03/24 03:52:35;;;;;;;0.80;0.80;;;4.70;99.90;;;;;;5052682;28;20182;-70
2022/03/24 03:55:00;;;;;;;2.17;2.07;;;4.60;99.90;;;;;;5050806;28;20217;-70
2022/03/24 03:57:26;;;;;;;0.80;0.80;;;4.60;99.90;;;;;;5052639;28;20270;-70
2022/03/24 03:59:51;;;;;;;1.10;1.00;;;4.60;99.90;;;;;;5052580;28;20172;-70
2022/03/24 04:02:17;;;;;;;3.27;3.00;;;4.60;99.90;;;;;;5052570;28;20179;-70
2022/03/24 04:04:42;;;;;;;3.63;3.33;;;4.60;99.90;;;;;;5052103;28;20204;-69
2022/03/24 04:07:09;;;;;;;3.53;3.23;;;4.50;99.90;;;;;;5052389;28;20170;-70
2022/03/24 04:09:35;;;;;;;5.30;3.53;;;4.50;99.90;;;;;;5052396;28;20579;-70
2022/03/24 04:12:00;;;;;;;1.97;1.87;;;4.50;99.90;;;;;;5052365;28;20413;-69
2022/03/24 04:14:26;;;;;;;0.80;0.77;;;4.50;99.90;;;;;;5051914;28;20324;-70
2022/03/24 04:16:52;;;;;;;0.70;0.50;;;4.50;99.90;;;;;;5052359;28;20194;-70
2022/03/24 04:19:19;;;;;;;0.80;0.60;;;4.40;99.90;;;;;;5052294;28;20162;-70
2022/03/24 04:21:45;;;;;;;0.90;0.90;;;4.40;99.90;;;;;;5052218;28;20181;-70
2022/03/24 04:24:11;;;;;;;0.97;0.80;;;4.40;99.90;;;;;;5051765;28;20429;-70
2022/03/24 04:26:36;;;;;;;1.13;1.03;;;4.40;99.90;;;;;;5052125;28;20416;-70
2022/03/24 04:29:02;;;;;;;1.10;1.00;;;4.30;99.90;;;;;;5052235;28;20171;-70
2022/03/24 04:31:28;;;;;;;0.70;0.50;;;4.30;99.90;;;;;;5052050;28;20667;-70
2022/03/24 04:33:54;;;;;;;2.13;1.83;;;4.30;99.90;;;;;;5051617;28;20473;-70
2022/03/24 04:36:20;;;;;;;0.70;0.60;;;4.30;99.90;;;;;;5051860;28;20198;-70
2022/03/24 04:38:45;;;;;;;0.80;0.70;;;4.30;99.90;;;;;;5051974;28;20437;-70
2022/03/24 04:41:11;;;;;;;0.80;0.80;;;4.20;99.90;;;;;;5052023;28;20163;-69
2022/03/24 04:43:37;;;;;;;0.70;0.50;;;4.20;99.90;;;;;;5051677;28;20180;-70
2022/03/24 04:46:04;;;;;;;0.80;0.80;;;4.20;99.90;;;;;;5051898;28;20183;-70
2022/03/24 04:48:35;;;;;;;3.13;2.97;;;4.20;99.90;;;;;;5051796;28;20402;-70
2022/03/24 04:51:03;;;;;;;1.87;1.00;;;4.10;99.90;;;;;;5051851;28;20418;-70
2022/03/24 04:53:29;;;;;;;0.90;0.80;;;4.10;99.90;;;;;;5051479;28;20773;-70
2022/03/24 04:55:54;;;;;;;0.70;0.50;;;4.10;99.90;;;;;;5051613;28;20465;-70
2022/03/24 04:58:20;;;;;;;1.17;1.07;;;4.10;99.90;;;;;;5051838;28;20182;-70
2022/03/24 05:00:45;;;;;;;0.80;0.60;;;4.00;99.90;;;;;;5051788;28;20518;-70
2022/03/24 05:03:11;;;;;;;1.77;0.80;;;4.00;99.90;;;;;;5051555;28;20245;-70
2022/03/24 05:05:37;;;;;;;0.87;0.70;;;4.00;99.90;;;;;;5051449;28;20187;-70
2022/03/24 05:08:03;;;;;;;2.10;2.00;;;4.00;99.90;;;;;;5051731;28;20174;-70
2022/03/24 05:10:29;;;;;;;0.70;0.50;;;4.00;99.90;;;;;;5051685;28;20171;-70
2022/03/24 05:12:55;;;;;;;0.80;0.60;;;3.90;99.90;;;;;;5051625;28;20412;-71
2022/03/24 05:15:22;;;;;;;0.83;0.83;;;3.90;99.90;;;;;;5051208;28;20465;-70
2022/03/24 05:17:47;;;;;;;0.90;0.70;;;3.90;99.90;;;;;;5051570;28;20270;-70
2022/03/24 05:20:14;;;;;;;1.90;1.70;;;3.90;99.90;;;;;;5051633;28;20409;-70
2022/03/24 05:22:39;;;;;;;1.20;1.10;;;3.90;99.90;;;;;;5051501;28;20159;-70
2022/03/24 05:25:07;;;;;;;1.43;1.33;;;3.90;99.90;;;;;;5051199;28;20538;-70
2022/03/24 05:27:33;;;;;;;0.70;0.60;;;3.90;99.90;;;;;;5051521;28;20272;-70
2022/03/24 05:29:58;;;;;;;0.70;0.50;;;3.80;99.90;;;;;;5051473;28;20413;-70
2022/03/24 05:32:24;;;;;;;0.80;0.50;;;3.80;99.90;;;;;;5051450;28;20178;-70
2022/03/24 05:34:49;;;;;;;9.50;3.60;;;3.80;99.90;;;;;;5050981;28;20222;-70
2022/03/24 05:37:15;;;;;;;1.43;1.33;;;3.80;99.90;;;;;;5051514;28;20163;-70
2022/03/24 05:39:42;;;;;;;0.80;0.60;;;3.80;99.90;;;;;;5051316;28;20178;-70
2022/03/24 05:42:08;;;;;;;0.80;0.60;;;3.80;99.90;;;;;;5051311;28;20159;-70
2022/03/24 05:44:34;;;;;;;0.70;0.50;;;3.80;99.90;;;;;;5051098;28;20449;-70
2022/03/24 05:46:59;;;;;;;2.10;2.00;;;3.90;99.90;;;;;;5051233;28;20976;-70
2022/03/24 05:49:26;;;;;;;0.73;0.60;;;3.90;99.90;;;;;;5054473;28;20167;-70
2022/03/24 05:51:52;;;;;;;0.70;0.60;;;3.90;99.90;;;;;;5054991;28;20633;-70
2022/03/24 05:54:18;;;;;;;1.10;1.03;;;4.00;99.90;;;;;;5054434;28;20460;-70
2022/03/24 05:56:45;;;;;;;1.83;1.37;;;4.00;99.90;;;;;;5054920;28;20162;-70
2022/03/24 05:59:11;;;;;;;4.00;1.47;;;4.10;99.90;;;;;;5054817;28;20488;-70
2022/03/24 06:01:39;;;;;;;0.73;0.57;;;4.20;99.90;;;;;;5054707;28;20438;-70
2022/03/24 06:04:05;;;;;;;1.03;1.03;;;4.30;99.90;;;;;;5054400;28;20190;-70
2022/03/24 06:06:34;;;;;;;3.20;2.90;;;4.40;99.90;;;;;;5054793;28;20809;-70
2022/03/24 06:09:02;;;;;;;2.23;2.03;;;4.60;99.90;;;;;;5054667;28;20806;-70
2022/03/24 06:11:28;;;;;;;1.93;0.80;;;4.70;99.90;;;;;;5054648;28;20488;-70
2022/03/24 06:13:53;;;;;;;0.83;0.70;;;4.90;99.90;;;;;;5054104;28;20440;-70
2022/03/24 06:16:19;;;;;;;1.30;1.13;;;5.10;99.90;;;;;;5054435;28;20163;-70
2022/03/24 06:18:44;;;;;;;3.13;2.93;;;5.40;99.90;;;;;;5054485;28;20174;-70
2022/03/24 06:21:10;;;;;;;1.03;0.93;;;5.60;99.90;;;;;;5054515;28;20182;-70
2022/03/24 06:23:36;;;;;;;0.70;0.50;;;5.90;99.90;;;;;;5054159;28;20167;-70
2022/03/24 06:26:01;;;;;;;0.70;0.50;;;6.20;99.90;;;;;;5054266;28;20194;-70
2022/03/24 06:28:27;;;;;;;0.70;0.60;;;6.60;99.90;;;;;;5054367;28;20167;-69
2022/03/24 06:30:53;;;;;;;1.20;1.07;;;6.90;99.90;;;;;;5054119;28;20200;-70
2022/03/24 06:33:19;;;;;;;0.80;0.70;;;7.20;99.90;;;;;;5054509;28;20420;-69
2022/03/24 06:35:46;;;;;;;3.90;3.30;;;7.50;99.90;;;;;;5053822;28;20282;-71
2022/03/24 06:38:13;;;;;;;2.13;2.03;;;7.80;99.90;;;;;;5054102;28;20248;-71
2022/03/24 06:40:40;;;;;;;1.10;1.00;;;8.20;99.90;;;;;;5054034;28;20414;-71
2022/03/24 06:43:06;;;;;;;1.27;1.17;;;8.50;99.90;;;;;;5054537;28;20402;-71
2022/03/24 06:45:33;;;;;;;4.50;2.10;;;8.70;99.90;;;;;;5053477;28;20426;-71
2022/03/24 06:47:58;;;;;;;0.80;0.60;;;8.90;99.90;;;;;;5053906;28;20858;-71
2022/03/24 06:50:24;;;;;;;2.70;2.47;;;9.10;99.90;;;;;;5053919;28;20493;-70
2022/03/24 06:52:50;;;;;;;5.20;1.63;;;9.30;99.90;;;;;;5053999;28;20171;-70
2022/03/24 06:55:16;;;;;;;1.70;1.60;;;9.40;99.90;;;;;;5053225;28;20461;-71
2022/03/24 06:57:42;;;;;;;1.60;1.50;;;9.50;99.90;;;;;;5053757;28;20163;-70
2022/03/24 07:00:13;;;;;;;3.77;1.20;;;9.60;99.90;;;;;;5052458;28;20420;-71
2022/03/24 07:02:39;;;;;;;7.77;4.80;;;9.60;99.90;;;;;;5053699;28;20412;-70
2022/03/24 07:05:07;;;;;;;2.97;2.13;;;9.70;99.90;;;;;;5053276;28;20429;-70
2022/03/24 07:07:33;;;;;;;4.43;1.90;;;9.70;99.90;;;;;;5053587;28;20934;-70
2022/03/24 07:09:58;;;;;;;2.00;1.53;;;9.80;99.90;;;;;;5053503;28;20439;-71
2022/03/24 07:12:24;;;;;;;2.40;2.17;;;9.90;99.90;;;;;;5053451;28;20536;-71
2022/03/24 07:14:49;;;;;;;14.80;3.57;;;10.00;99.90;;;;;;5052921;28;20302;-70
2022/03/24 07:17:15;;;;;;;1.73;1.17;;;10.10;99.90;;;;;;5052110;28;20182;-71
2022/03/24 07:19:41;;;;;;;8.53;3.00;;;10.30;99.90;;;;;;5053365;28;20511;-71
2022/03/24 07:22:07;;;;;;;4.70;2.37;;;10.80;99.90;;;;;;5053249;28;20627;-71
2022/03/24 07:24:33;;;;;;;2.90;1.50;;;11.50;99.90;;;;;;5052913;28;20433;-71
2022/03/24 07:26:58;;;;;;;5.37;4.87;;;12.30;99.90;;;;;;5053056;28;20171;-71
2022/03/24 07:29:24;;;;;;;2.07;1.73;;;13.20;99.90;;;;;;5053153;28;20175;-71
2022/03/24 07:31:51;;;;;;;4.80;2.33;;;14.20;99.90;;;;;;5053008;28;20221;-71
2022/03/24 07:34:17;;;;;;;6.57;3.63;;;15.10;99.90;;;;;;5052597;28;20713;-71
2022/03/24 07:36:43;;;;;;;9.53;3.03;;;16.10;99.90;;;;;;5052966;28;20433;-71
2022/03/24 07:39:10;;;;;;;4.53;3.00;;;17.10;98.10;;;;;;5052691;28;20394;-71
2022/03/24 07:41:36;;;;;;;5.00;3.27;;;17.90;93.20;;;;;;5052421;28;20774;-71
2022/03/24 07:44:02;;;;;;;9.60;3.90;;;18.80;86.50;;;;;;5052233;28;20518;-72
2022/03/24 07:46:27;;;;;;;5.30;4.90;;;19.50;80.30;;;;;;5052751;28;20413;-71
2022/03/24 07:48:53;;;;;;;7.00;4.30;;;20.10;76.10;;;;;;5052631;28;20250;-71
2022/03/24 07:51:19;;;;;;;4.77;4.33;;;20.60;73.00;;;;;;5052682;28;20668;-70
2022/03/24 07:53:48;;;;;;;6.90;3.80;;;21.10;66.30;;;;;;5052031;28;20167;-70
2022/03/24 07:56:14;;;;;;;7.43;4.47;;;21.60;62.10;;;;;;5052575;28;20401;-70
2022/03/24 07:58:40;;;;;;;5.87;5.00;;;22.10;59.90;;;;;;5052364;28;20413;-70
2022/03/24 08:01:06;;;;;;;6.30;4.40;;;22.70;58.60;;;;;;5052464;28;21056;-70
2022/03/24 08:03:31;;;;;;;5.30;4.30;;;23.30;57.40;;;;;;5052286;28;20204;-70
2022/03/24 08:05:57;;;;;;;9.23;4.97;;;24.00;55.80;;;;;;5052253;28;21018;-70
2022/03/24 08:08:24;;;;;;;4.73;4.13;;;24.60;54.70;;;;;;5052364;28;20174;-70
2022/03/24 08:10:53;;;;;;;11.90;5.53;;;25.50;53.70;;;;;;5051989;28;20721;-70
2022/03/24 08:13:19;;;;;;;6.73;4.97;;;26.20;52.40;;;;;;5052250;28;20431;-70
2022/03/24 08:15:46;;;;;;;9.13;5.50;;;26.90;50.10;;;;;;5051877;28;20463;-70
2022/03/24 08:18:12;;;;;;;6.60;4.83;;;27.60;49.20;;;;;;5052253;28;20434;-70
2022/03/24 08:20:38;;;;;;;8.57;5.43;;;28.30;47.20;;;;;;5052215;28;20401;-70
2022/03/24 08:23:06;;;;;;;6.77;3.87;;;28.90;45.80;;;;;;5052110;28;20442;-70
2022/03/24 08:25:32;;;;;;;7.30;5.43;;;29.60;45.20;;;;;;5051753;28;20429;-70
2022/03/24 08:27:58;;;;;;;6.33;5.10;;;30.20;44.00;;;;;;5052082;28;20436;-70
2022/03/24 08:30:25;;;;;;;5.90;4.57;;;30.90;42.70;;;;;;5052106;28;20417;-70
2022/03/24 08:32:51;;;;;;;7.13;4.20;;;31.50;41.40;;;;;;5052040;28;20409;-70
2022/03/24 08:35:18;;;;;;;7.13;6.43;;;32.00;40.00;;;;;;5051499;28;20449;-70
2022/03/24 08:37:44;;;;;;;10.97;5.10;;;32.70;39.40;;;;;;5052044;28;20170;-70
2022/03/24 08:40:10;;;;;;;6.70;4.90;;;33.20;38.30;;;;;;5051847;28;20409;-70
2022/03/24 08:42:37;;;;;;;10.60;8.23;;;33.50;37.70;;;;;;5050668;28;20170;-70
2022/03/24 08:45:09;;;;;;;11.67;8.17;;;34.10;36.40;;;;;;5051384;28;20425;-70
2022/03/24 08:47:35;;;;;;;11.40;7.50;;;34.50;34.70;;;;;;5051786;28;20409;-71
2022/03/24 08:50:00;;;;;;;9.33;6.30;;;35.00;35.80;;;;;;5051736;28;20421;-71
2022/03/24 08:52:27;;;;;;;7.73;5.70;;;35.40;34.20;;;;;;5051688;28;20470;-71
2022/03/24 08:54:54;;;;;;;8.10;5.40;;;35.80;33.20;;;;;;5051108;28;20360;-71
2022/03/24 08:57:26;;;;;;;10.83;6.03;;;36.10;32.60;;;;;;5051887;28;20891;-71
2022/03/24 08:59:53;;;;;;;7.97;5.33;;;36.50;32.40;;;;;;5051413;28;20398;-71
2022/03/24 09:02:20;;;;;;;6.67;5.37;;;36.90;31.90;;;;;;5051393;28;20886;-71
2022/03/24 09:04:46;;;;;;;7.83;5.33;;;37.20;31.90;;;;;;5051451;28;20432;-71
2022/03/24 09:07:12;;;;;;;6.07;5.47;;;37.60;31.50;;;;;;5051647;28;20409;-71
2022/03/24 09:09:37;;;;;;;8.30;6.80;;;38.00;30.80;;;;;;5050344;28;20953;-71
2022/03/24 09:12:04;;;;;;;9.57;5.50;;;38.30;30.00;;;;;;5051580;28;20254;-72
2022/03/24 09:14:29;;;;;;;7.50;5.80;;;38.70;29.30;;;;;;5051129;28;20199;-72
2022/03/24 09:16:55;;;;;;;10.20;7.33;;;39.20;29.60;;;;;;5051588;28;20409;-72
2022/03/24 09:19:20;;;;;;;10.63;6.47;;;39.70;29.60;;;;;;5051696;28;20250;-72
2022/03/24 09:21:46;;;;;;;7.37;5.93;;;39.90;28.70;;;;;;5051500;28;20249;-71
2022/03/24 09:24:12;;;;;;;14.70;7.50;;;40.20;28.20;;;;;;5054269;28;20212;-72
2022/03/24 09:26:37;;;;;;;7.70;6.90;;;40.50;28.20;;;;;;5055466;28;20829;-72
2022/03/24 09:29:03;;;;;;;8.73;6.50;;;40.90;28.10;;;;;;5055464;28;20442;-72
2022/03/24 09:31:29;;;;;;;9.77;6.43;;;41.30;27.90;;;;;;5055408;28;20159;-72
2022/03/24 09:33:55;;;;;;;9.63;7.73;;;41.70;27.90;;;;;;5054941;28;20540;-72
2022/03/24 09:36:22;;;;;;;7.80;6.57;;;41.90;27.10;;;;;;5053964;28;20258;-72
2022/03/24 09:38:47;;;;;;;11.60;8.03;;;42.10;26.70;;;;;;5055237;28;20397;-72
2022/03/24 09:41:14;;;;;;;9.20;6.20;;;42.20;26.60;;;;;;5055157;28;20368;-72
2022/03/24 09:43:41;;;;;;;11.20;7.70;;;42.50;26.60;;;;;;5054954;28;20186;-71
2022/03/24 09:46:07;;;;;;;7.70;6.80;;;42.90;26.60;;;;;;5054824;28;20442;-71
2022/03/24 09:48:33;;;;;;;7.50;5.90;;;43.20;26.40;;;;;;5055006;28;20779;-72
2022/03/24 09:50:58;;;;;;;13.70;7.57;;;43.50;25.90;;;;;;5054942;28;20392;-72
2022/03/24 09:53:24;;;;;;;9.30;7.13;;;43.80;25.60;;;;;;5055021;28;20159;-72
2022/03/24 09:55:50;;;;;;;11.50;8.00;;;44.00;25.80;;;;;;5054537;28;20679;-72
2022/03/24 09:58:16;;;;;;;7.37;6.43;;;44.30;25.70;;;;;;5054791;28;20170;-72
2022/03/24 10:00:42;;;;;;;10.70;8.47;;;44.50;25.50;;;;;;5054775;28;20497;-72
2022/03/24 10:03:10;;;;;;;8.23;7.30;;;44.70;25.60;;;;;;5054819;28;20631;-72
2022/03/24 10:05:36;;;;;;;16.60;7.40;;;44.90;25.40;;;;;;5054322;28;20823;-72
2022/03/24 10:08:06;;;;;;;7.90;6.20;;;45.20;25.20;;;;;;5053446;28;20391;-72
2022/03/24 10:10:34;;;;;;;7.30;6.17;;;45.40;24.80;;;;;;5054621;28;20788;-72
2022/03/24 10:13:01;;;;;;;7.10;6.40;;;45.60;24.30;;;;;;5054576;28;20385;-72
2022/03/24 10:15:28;;;;;;;9.50;6.20;;;45.90;24.30;;;;;;5053113;28;20418;-72
2022/03/24 10:17:56;;;;;;;7.90;7.10;;;46.20;24.20;;;;;;5050969;28;20430;-72
2022/03/24 10:20:23;;;;;;;8.17;5.93;;;46.40;24.00;;;;;;5034564;28;20446;-74
2022/03/24 10:22:59;;;;;;;9.53;8.57;;;46.80;23.70;;;;;;5034634;28;20385;-71
2022/03/24 10:25:33;;;;;;;8.03;6.30;;;46.90;23.50;;;;;;5034037;28;20789;-73
2022/03/24 10:28:09;;;;;;;7.30;6.47;;;47.20;23.50;;;;;;5034667;28;20377;-73
2022/03/24 10:30:51;;;;;;;11.33;7.10;;;47.60;23.30;;;;;;5034298;28;20384;-73
2022/03/24 10:33:28;;;;;;;8.80;6.37;;;47.90;23.20;;;;;;5033774;28;20422;-73
2022/03/24 10:36:14;;;;;;;7.43;6.10;;;48.30;23.00;;;;;;5033922;28;20400;-72
2022/03/24 10:38:43;;;;;;;7.03;6.30;;;48.60;23.00;;;;;;5034169;28;20903;-73
2022/03/24 10:41:22;;;;;;;7.97;7.27;;;48.90;23.10;;;;;;5034069;28;20538;-73
2022/03/24 10:43:52;;;;;;;9.17;7.40;;;49.20;23.00;;;;;;5033764;28;20385;-71
2022/03/24 10:46:22;;;;;;;6.07;5.20;;;49.60;22.80;;;;;;5034009;28;20963;-71
2022/03/24 10:48:49;;;;;;;7.83;7.03;;;49.90;22.50;;;;;;5033718;28;20404;-71
2022/03/24 10:51:25;;;;;;;7.13;6.47;;;50.20;22.20;;;;;;5033861;28;20385;-71
2022/03/24 10:53:53;;;;;;;7.70;6.50;;;50.50;22.10;;;;;;5033461;28;20463;-71
2022/03/24 10:56:30;;;;;;;8.60;7.20;;;50.90;21.80;;;;;;5033720;28;20410;-71
2022/03/24 10:58:59;;;;;;;7.13;6.43;;;51.10;22.00;;;;;;5033800;28;20365;-72
2022/03/24 11:01:28;;;;;;;8.00;7.23;;;51.40;22.10;;;;;;5033593;28;20376;-71
2022/03/24 11:03:54;;;;;;;8.53;7.63;;;51.70;22.10;;;;;;5033266;28;20435;-72
2022/03/24 11:06:25;;;;;;;7.70;6.90;;;51.90;21.90;;;;;;5033577;28;20472;-71
2022/03/24 11:09:00;;;;;;;9.10;7.53;;;52.20;22.00;;;;;;5033672;28;20398;-70
2022/03/24 11:11:27;;;;;;;8.00;7.20;;;52.50;21.70;;;;;;5033546;28;20425;-72
2022/03/24 11:14:03;;;;;;;9.87;6.20;;;52.70;21.30;;;;;;5033260;28;20394;-72
2022/03/24 11:16:31;;;;;;;5.60;5.00;;;53.00;21.50;;;;;;5033426;28;20780;-71
2022/03/24 11:18:59;;;;;;;7.33;5.97;;;53.20;21.20;;;;;;5033460;28;20407;-71
2022/03/24 11:21:58;;;;;;;8.10;7.30;;;53.40;21.30;;;;;;5033421;28;20749;-72
2022/03/24 11:24:24;;;;;;;6.60;6.00;;;53.70;21.30;;;;;;5032834;28;20461;-72
2022/03/24 11:26:50;;;;;;;10.27;6.97;;;53.80;21.20;;;;;;5033247;28;20402;-72
2022/03/24 11:29:17;;;;;;;5.90;5.40;;;54.00;21.10;;;;;;5033170;28;20406;-72
2022/03/24 11:31:45;;;;;;;6.37;5.83;;;54.20;21.10;;;;;;5033293;28;20445;-71
2022/03/24 11:34:11;;;;;;;6.00;5.07;;;54.40;21.10;;;;;;5032702;28;20496;-71
2022/03/24 11:36:37;;;;;;;5.70;5.20;;;54.60;21.30;;;;;;5033091;28;20442;-71
2022/03/24 11:39:06;;;;;;;6.53;5.93;;;54.70;20.90;;;;;;5032903;28;20293;-71
2022/03/24 11:41:39;;;;;;;6.50;5.80;;;54.80;20.60;;;;;;5032965;28;20574;-70
2022/03/24 11:44:26;;;;;;;6.80;6.10;;;54.90;20.70;;;;;;5032529;28;20476;-71
2022/03/24 11:46:59;;;;;;;6.30;5.27;;;55.10;20.60;;;;;;5029689;28;20424;-69
2022/03/24 11:49:29;;;;;;;6.77;5.07;;;55.20;20.30;;;;;;5031588;28;20457;-72
2022/03/24 11:51:57;;;;;;;7.00;5.30;;;55.20;20.40;;;;;;5032881;28;20414;-71
2022/03/24 11:54:52;;;;;;;7.03;6.33;;;55.30;20.40;;;;;;5032262;28;20925;-72
2022/03/24 11:57:37;;;;;;;5.80;4.40;;;55.30;20.30;;;;;;5031713;28;20783;-69
2022/03/24 12:00:14;;;;;;;5.70;5.17;;;55.50;20.40;;;;;;5032406;28;20410;-70
2022/03/24 12:02:45;;;;;;;6.70;6.00;;;55.80;20.20;;;;;;5032295;28;20789;-70
2022/03/24 12:05:12;;;;;;;5.07;4.57;;;56.10;20.20;;;;;;5031856;28;20523;-70
2022/03/24 12:07:38;;;;;;;5.97;5.30;;;56.30;20.10;;;;;;5032341;28;20411;-71
2022/03/24 12:10:08;;;;;;;7.30;6.70;;;56.40;20.10;;;;;;5032240;28;20394;-70
2022/03/24 12:12:39;;;;;;;6.07;5.40;;;56.50;19.80;;;;;;5032182;28;20168;-71
2022/03/24 12:15:22;;;;;;;6.90;5.40;;;56.50;19.90;;;;;;5031813;28;20773;-71
2022/03/24 12:18:02;;;;;;;5.60;5.10;;;56.50;19.90;;;;;;5032055;28;20425;-71
2022/03/24 12:20:38;;;;;;;5.73;5.30;;;56.50;20.00;;;;;;5032010;28;20744;-71
2022/03/24 12:23:03;;;;;;;5.27;4.83;;;56.60;19.70;;;;;;5032076;28;20895;-70
2022/03/24 12:25:30;;;;;;;5.50;5.00;;;56.70;19.60;;;;;;5031500;28;20458;-70
2022/03/24 12:27:58;;;;;;;5.80;5.30;;;56.80;19.60;;;;;;5031848;28;20168;-70
2022/03/24 12:30:24;;;;;;;5.53;5.13;;;56.90;19.70;;;;;;5030529;28;20410;-70
2022/03/24 12:33:12;;;;;;;5.53;5.03;;;56.90;19.80;;;;;;5031903;28;20489;-70
2022/03/24 12:35:45;;;;;;;5.37;4.80;;;57.10;19.60;;;;;;5031475;28;20397;-70
2022/03/24 12:38:43;;;;;;;5.10;4.63;;;57.00;19.70;;;;;;5031711;28;20388;-70
2022/03/24 12:41:11;;;;;;;5.93;5.47;;;57.20;19.80;;;;;;5031871;28;20493;-70
2022/03/24 12:43:59;;;;;;;6.70;6.00;;;57.50;20.30;;;;;;5031825;28;20987;-71
2022/03/24 12:46:35;;;;;;;7.17;6.57;;;57.50;19.70;;;;;;5031665;28;20380;-70
2022/03/24 12:49:12;;;;;;;7.30;5.43;;;57.60;19.60;;;;;;5031707;28;20388;-71
2022/03/24 12:52:02;;;;;;;6.80;5.60;;;57.80;19.60;;;;;;5031681;28;20432;-71
2022/03/24 12:54:39;;;;;;;6.30;5.80;;;57.90;19.50;;;;;;5031160;28;20446;-71
2022/03/24 12:57:33;;;;;;;5.97;5.43;;;58.10;19.30;;;;;;5033003;28;20394;-71